Accueil
METAR-TAF:

METAR-TAF

Aéroports :

Agra, Inde

latitude: 27-09-27N, longitude: 077-57-39E, altitude: 168 m

METAR: absent

Heure: 11:42 (06:12 UTC)

Prévision

Le bulletin a été fait il y a 2 heures et 42 minutes, à 03:30 UTC
Prévision valable du 08 à 06 UTC au 08 à 18 UTC
Vent 5 kt de nord/nord-est
Visibilité: 1500 m
Nuages épars à une hauteur de 25000 ft
brume
Evoluant progressivement
du 08 à 10 UTC au 08 à 11 UTC
Visibilité: 2000 m
brume sèche
Evoluant progressivement
du 08 à 14 UTC au 08 à 15 UTC
Visibilité: 1500 m
brume

TAF: VIAG 080330Z 0806/0818 02005KT 1500 BR SCT250 BECMG 0810/0811 2000 HZ BECMG 0814/0815 1500 BR

Observations et prévisions météorologiques de plus de 4000 aéroports (messages METAR et TAF).

Les stations disponibles sont représentées par des disques jaunes et rouges sur la carte.

Passer la souris dessus pour voir le nom de la station.

Cliquer dessus pour voir les observations et prévisions météorologiques.

Pour changer de carte: cliquez sur les boutons verts avec une croix noire pour zoomer, sur le bouton vert avec un tiret pour effectuer un zoom arrière, ou sur les flèches vertes pour les cartes adjacentes.


METAR-TAF: